Granite Canyon, Wyoming
Current Conditions -  °F | °C
As of 2:56 PM on Sunday 21 Dec 2014 (Local Time) from KFEW Reporting Station
Scattered Clouds Scattered Clouds  
Wind Chill: 34°   Ceiling: Unl
Heat Index: 44°   Visibility: 10mi
Dew Point: 27°   Wind: 24mph
Humidity: 52%   Direction: 290°WNW
Pressure: 29.47"   Gusts: 35mph
Location:  41.0966°N, 105.138°W
Report Text: KFEW 212156Z AUTO 29021G30KT 10SM SCT150 06/M03 A2947 RMK AO2 PK WND 28033/32 SLP974 T00641029 $
Loading
Personal Weather Stations






























Interactive Weather Map New forecast layout! Learn more

10-Day Weather Forecast

Advertisements
Track Severe Weather on mobile